sensor_id;sensor_type;location;lat;lon;timestamp;P1;durP1;ratioP1;P2;durP2;ratioP2
71916;SDS011;59793;46.506;6.674;2023-04-12T00:02:13;5.28;;;1.35;;
71916;SDS011;59793;46.506;6.674;2023-04-12T00:04:39;1.73;;;1.08;;
71916;SDS011;59793;46.506;6.674;2023-04-12T00:07:05;3.50;;;1.00;;
71916;SDS011;59793;46.506;6.674;2023-04-12T00:09:30;3.40;;;1.03;;
71916;SDS011;59793;46.506;6.674;2023-04-12T00:11:58;3.40;;;1.40;;
71916;SDS011;59793;46.506;6.674;2023-04-12T00:14:24;7.68;;;2.35;;
71916;SDS011;59793;46.506;6.674;2023-04-12T00:16:53;3.33;;;1.58;;
71916;SDS011;59793;46.506;6.674;2023-04-12T00:19:18;2.60;;;1.03;;
71916;SDS011;59793;46.506;6.674;2023-04-12T00:21:44;2.28;;;1.10;;
71916;SDS011;59793;46.506;6.674;2023-04-12T00:24:09;3.03;;;1.10;;
71916;SDS011;59793;46.506;6.674;2023-04-12T00:26:35;2.97;;;1.30;;
71916;SDS011;59793;46.506;6.674;2023-04-12T00:29:00;2.30;;;1.13;;
71916;SDS011;59793;46.506;6.674;2023-04-12T00:31:26;3.70;;;1.17;;
71916;SDS011;59793;46.506;6.674;2023-04-12T00:33:52;2.30;;;1.13;;
71916;SDS011;59793;46.506;6.674;2023-04-12T00:36:17;1.93;;;1.40;;
71916;SDS011;59793;46.506;6.674;2023-04-12T00:38:43;2.75;;;1.50;;
71916;SDS011;59793;46.506;6.674;2023-04-12T00:41:10;6.03;;;1.35;;
71916;SDS011;59793;46.506;6.674;2023-04-12T00:43:36;3.80;;;1.10;;
71916;SDS011;59793;46.506;6.674;2023-04-12T00:46:01;3.57;;;1.47;;
71916;SDS011;59793;46.506;6.674;2023-04-12T00:48:27;2.30;;;1.10;;
71916;SDS011;59793;46.506;6.674;2023-04-12T00:50:52;3.87;;;1.30;;
71916;SDS011;59793;46.506;6.674;2023-04-12T00:53:21;5.82;;;1.52;;
71916;SDS011;59793;46.506;6.674;2023-04-12T00:55:48;2.77;;;1.27;;
71916;SDS011;59793;46.506;6.674;2023-04-12T00:58:15;4.60;;;1.27;;
71916;SDS011;59793;46.506;6.674;2023-04-12T01:00:41;4.17;;;1.03;;
71916;SDS011;59793;46.506;6.674;2023-04-12T01:03:17;4.85;;;1.38;;
71916;SDS011;59793;46.506;6.674;2023-04-12T01:08:47;4.65;;;1.20;;
71916;SDS011;59793;46.506;6.674;2023-04-12T01:13:50;2.93;;;1.40;;
71916;SDS011;59793;46.506;6.674;2023-04-12T01:22:22;6.32;;;1.50;;
71916;SDS011;59793;46.506;6.674;2023-04-12T01:27:55;5.53;;;0.93;;
71916;SDS011;59793;46.506;6.674;2023-04-12T01:30:21;2.28;;;0.95;;
71916;SDS011;59793;46.506;6.674;2023-04-12T01:32:50;3.47;;;1.23;;
71916;SDS011;59793;46.506;6.674;2023-04-12T01:35:19;1.90;;;1.17;;
71916;SDS011;59793;46.506;6.674;2023-04-12T01:37:47;2.65;;;1.20;;
71916;SDS011;59793;46.506;6.674;2023-04-12T01:40:12;5.13;;;1.65;;
71916;SDS011;59793;46.506;6.674;2023-04-12T01:42:38;4.70;;;1.63;;
71916;SDS011;59793;46.506;6.674;2023-04-12T01:45:04;1.70;;;1.08;;
71916;SDS011;59793;46.506;6.674;2023-04-12T01:47:30;10.23;;;1.92;;
71916;SDS011;59793;46.506;6.674;2023-04-12T01:52:31;2.13;;;1.05;;
71916;SDS011;59793;46.506;6.674;2023-04-12T01:55:03;2.28;;;1.30;;
71916;SDS011;59793;46.506;6.674;2023-04-12T01:57:31;2.83;;;1.27;;
71916;SDS011;59793;46.506;6.674;2023-04-12T01:59:58;2.00;;;1.05;;
71916;SDS011;59793;46.506;6.674;2023-04-12T02:02:26;1.60;;;1.15;;
71916;SDS011;59793;46.506;6.674;2023-04-12T02:04:52;5.53;;;1.38;;
71916;SDS011;59793;46.506;6.674;2023-04-12T02:07:18;2.97;;;1.33;;
71916;SDS011;59793;46.506;6.674;2023-04-12T02:09:44;2.22;;;1.27;;
71916;SDS011;59793;46.506;6.674;2023-04-12T02:12:10;2.10;;;1.00;;
71916;SDS011;59793;46.506;6.674;2023-04-12T02:14:36;1.65;;;1.02;;
71916;SDS011;59793;46.506;6.674;2023-04-12T02:17:02;2.80;;;1.20;;
71916;SDS011;59793;46.506;6.674;2023-04-12T02:19:28;3.70;;;1.27;;
71916;SDS011;59793;46.506;6.674;2023-04-12T02:21:53;2.17;;;1.37;;
71916;SDS011;59793;46.506;6.674;2023-04-12T02:24:19;1.90;;;1.13;;
71916;SDS011;59793;46.506;6.674;2023-04-12T02:26:45;5.60;;;1.27;;
71916;SDS011;59793;46.506;6.674;2023-04-12T02:29:13;7.05;;;1.35;;
71916;SDS011;59793;46.506;6.674;2023-04-12T02:31:39;5.17;;;2.07;;
71916;SDS011;59793;46.506;6.674;2023-04-12T02:34:05;2.43;;;1.50;;
71916;SDS011;59793;46.506;6.674;2023-04-12T02:36:30;2.15;;;1.30;;
71916;SDS011;59793;46.506;6.674;2023-04-12T02:38:56;3.90;;;1.60;;
71916;SDS011;59793;46.506;6.674;2023-04-12T02:41:22;2.97;;;1.53;;
71916;SDS011;59793;46.506;6.674;2023-04-12T02:43:48;2.72;;;1.65;;
71916;SDS011;59793;46.506;6.674;2023-04-12T02:46:14;5.50;;;1.50;;
71916;SDS011;59793;46.506;6.674;2023-04-12T02:48:43;4.93;;;1.25;;
71916;SDS011;59793;46.506;6.674;2023-04-12T02:51:12;5.35;;;1.63;;
71916;SDS011;59793;46.506;6.674;2023-04-12T02:53:37;3.00;;;1.10;;
71916;SDS011;59793;46.506;6.674;2023-04-12T02:56:03;2.63;;;1.27;;
71916;SDS011;59793;46.506;6.674;2023-04-12T02:58:29;3.78;;;1.48;;
71916;SDS011;59793;46.506;6.674;2023-04-12T03:00:55;2.78;;;1.20;;
71916;SDS011;59793;46.506;6.674;2023-04-12T03:03:24;2.75;;;1.17;;
71916;SDS011;59793;46.506;6.674;2023-04-12T03:05:50;3.63;;;1.30;;
71916;SDS011;59793;46.506;6.674;2023-04-12T03:08:17;3.28;;;1.55;;
71916;SDS011;59793;46.506;6.674;2023-04-12T03:10:42;4.97;;;1.40;;
71916;SDS011;59793;46.506;6.674;2023-04-12T03:13:08;2.43;;;1.17;;
71916;SDS011;59793;46.506;6.674;2023-04-12T03:15:33;5.97;;;1.40;;
71916;SDS011;59793;46.506;6.674;2023-04-12T03:17:58;6.50;;;1.58;;
71916;SDS011;59793;46.506;6.674;2023-04-12T03:20:24;2.97;;;1.20;;
71916;SDS011;59793;46.506;6.674;2023-04-12T03:22:49;4.17;;;1.63;;
71916;SDS011;59793;46.506;6.674;2023-04-12T03:25:15;4.00;;;1.40;;
71916;SDS011;59793;46.506;6.674;2023-04-12T03:27:44;4.28;;;1.48;;
71916;SDS011;59793;46.506;6.674;2023-04-12T03:30:09;3.00;;;1.27;;
71916;SDS011;59793;46.506;6.674;2023-04-12T03:32:36;6.15;;;1.42;;
71916;SDS011;59793;46.506;6.674;2023-04-12T03:35:01;3.15;;;1.48;;
71916;SDS011;59793;46.506;6.674;2023-04-12T03:37:27;3.40;;;1.20;;
71916;SDS011;59793;46.506;6.674;2023-04-12T03:39:53;4.73;;;1.63;;
71916;SDS011;59793;46.506;6.674;2023-04-12T03:42:18;4.03;;;1.30;;
71916;SDS011;59793;46.506;6.674;2023-04-12T03:44:44;3.63;;;1.47;;
71916;SDS011;59793;46.506;6.674;2023-04-12T03:47:09;2.33;;;1.23;;
71916;SDS011;59793;46.506;6.674;2023-04-12T03:49:35;3.70;;;1.60;;
71916;SDS011;59793;46.506;6.674;2023-04-12T03:54:28;5.95;;;1.58;;
71916;SDS011;59793;46.506;6.674;2023-04-12T03:56:53;2.80;;;1.40;;
71916;SDS011;59793;46.506;6.674;2023-04-12T03:59:18;4.73;;;1.93;;
71916;SDS011;59793;46.506;6.674;2023-04-12T04:01:44;2.53;;;1.27;;
71916;SDS011;59793;46.506;6.674;2023-04-12T04:04:10;2.77;;;1.40;;
71916;SDS011;59793;46.506;6.674;2023-04-12T04:06:35;4.47;;;1.48;;
71916;SDS011;59793;46.506;6.674;2023-04-12T04:09:00;3.20;;;1.37;;
71916;SDS011;59793;46.506;6.674;2023-04-12T04:11:26;1.67;;;1.17;;
71916;SDS011;59793;46.506;6.674;2023-04-12T04:13:51;2.27;;;1.10;;
71916;SDS011;59793;46.506;6.674;2023-04-12T04:16:17;3.03;;;1.03;;
71916;SDS011;59793;46.506;6.674;2023-04-12T04:18:42;1.55;;;0.90;;
71916;SDS011;59793;46.506;6.674;2023-04-12T04:21:08;2.20;;;1.10;;
71916;SDS011;59793;46.506;6.674;2023-04-12T04:23:33;2.00;;;0.90;;
71916;SDS011;59793;46.506;6.674;2023-04-12T04:26:08;2.60;;;0.95;;
71916;SDS011;59793;46.506;6.674;2023-04-12T04:28:38;2.35;;;1.05;;
71916;SDS011;59793;46.506;6.674;2023-04-12T04:31:08;2.67;;;1.23;;
71916;SDS011;59793;46.506;6.674;2023-04-12T04:33:34;3.03;;;1.33;;
71916;SDS011;59793;46.506;6.674;2023-04-12T04:36:00;2.83;;;1.13;;
71916;SDS011;59793;46.506;6.674;2023-04-12T04:38:28;2.38;;;1.30;;
71916;SDS011;59793;46.506;6.674;2023-04-12T04:40:56;4.22;;;1.30;;
71916;SDS011;59793;46.506;6.674;2023-04-12T04:43:22;1.83;;;1.00;;
71916;SDS011;59793;46.506;6.674;2023-04-12T04:45:51;1.83;;;1.00;;
71916;SDS011;59793;46.506;6.674;2023-04-12T04:48:18;3.75;;;1.17;;
71916;SDS011;59793;46.506;6.674;2023-04-12T04:50:45;2.40;;;1.23;;
71916;SDS011;59793;46.506;6.674;2023-04-12T04:53:10;2.73;;;1.03;;
71916;SDS011;59793;46.506;6.674;2023-04-12T04:55:36;4.28;;;1.25;;
71916;SDS011;59793;46.506;6.674;2023-04-12T04:58:01;4.82;;;0.98;;
71916;SDS011;59793;46.506;6.674;2023-04-12T05:00:27;6.82;;;1.70;;
71916;SDS011;59793;46.506;6.674;2023-04-12T05:02:52;1.73;;;1.25;;
71916;SDS011;59793;46.506;6.674;2023-04-12T05:05:20;3.83;;;1.25;;
71916;SDS011;59793;46.506;6.674;2023-04-12T05:07:49;5.25;;;1.85;;
71916;SDS011;59793;46.506;6.674;2023-04-12T05:10:15;2.83;;;1.33;;
71916;SDS011;59793;46.506;6.674;2023-04-12T05:12:40;3.23;;;1.57;;
71916;SDS011;59793;46.506;6.674;2023-04-12T05:15:06;4.78;;;1.88;;
71916;SDS011;59793;46.506;6.674;2023-04-12T05:17:31;3.10;;;1.45;;
71916;SDS011;59793;46.506;6.674;2023-04-12T05:19:58;6.53;;;1.52;;
71916;SDS011;59793;46.506;6.674;2023-04-12T05:22:24;3.33;;;1.45;;
71916;SDS011;59793;46.506;6.674;2023-04-12T05:24:49;2.60;;;1.10;;
71916;SDS011;59793;46.506;6.674;2023-04-12T05:27:15;3.75;;;1.30;;
71916;SDS011;59793;46.506;6.674;2023-04-12T05:29:44;4.03;;;1.20;;
71916;SDS011;59793;46.506;6.674;2023-04-12T05:32:10;5.75;;;1.30;;
71916;SDS011;59793;46.506;6.674;2023-04-12T05:34:35;6.13;;;1.47;;
71916;SDS011;59793;46.506;6.674;2023-04-12T05:37:01;8.88;;;1.83;;
71916;SDS011;59793;46.506;6.674;2023-04-12T05:39:28;12.15;;;3.58;;
71916;SDS011;59793;46.506;6.674;2023-04-12T05:41:54;4.03;;;1.65;;
71916;SDS011;59793;46.506;6.674;2023-04-12T05:44:20;3.00;;;1.70;;
71916;SDS011;59793;46.506;6.674;2023-04-12T05:46:45;4.50;;;1.40;;
71916;SDS011;59793;46.506;6.674;2023-04-12T05:49:11;3.90;;;1.65;;
71916;SDS011;59793;46.506;6.674;2023-04-12T05:51:36;12.43;;;2.23;;
71916;SDS011;59793;46.506;6.674;2023-04-12T05:54:02;3.70;;;1.43;;
71916;SDS011;59793;46.506;6.674;2023-04-12T05:56:30;4.57;;;1.50;;
71916;SDS011;59793;46.506;6.674;2023-04-12T05:58:56;6.33;;;2.10;;
71916;SDS011;59793;46.506;6.674;2023-04-12T06:01:21;3.67;;;1.35;;
71916;SDS011;59793;46.506;6.674;2023-04-12T06:06:15;3.13;;;1.55;;
71916;SDS011;59793;46.506;6.674;2023-04-12T06:08:40;3.00;;;1.50;;
71916;SDS011;59793;46.506;6.674;2023-04-12T06:11:06;6.35;;;1.75;;
71916;SDS011;59793;46.506;6.674;2023-04-12T06:13:32;5.00;;;1.47;;
71916;SDS011;59793;46.506;6.674;2023-04-12T06:15:57;7.83;;;1.63;;
71916;SDS011;59793;46.506;6.674;2023-04-12T06:18:23;7.97;;;1.50;;
71916;SDS011;59793;46.506;6.674;2023-04-12T06:20:48;4.18;;;1.90;;
71916;SDS011;59793;46.506;6.674;2023-04-12T06:23:13;7.33;;;1.40;;
71916;SDS011;59793;46.506;6.674;2023-04-12T06:25:39;2.58;;;0.90;;
71916;SDS011;59793;46.506;6.674;2023-04-12T06:28:05;6.63;;;1.40;;
71916;SDS011;59793;46.506;6.674;2023-04-12T06:30:30;3.53;;;1.30;;
71916;SDS011;59793;46.506;6.674;2023-04-12T06:32:56;3.97;;;1.50;;
71916;SDS011;59793;46.506;6.674;2023-04-12T06:35:21;2.93;;;1.50;;
71916;SDS011;59793;46.506;6.674;2023-04-12T06:37:47;2.77;;;1.10;;
71916;SDS011;59793;46.506;6.674;2023-04-12T06:40:13;4.83;;;1.30;;
71916;SDS011;59793;46.506;6.674;2023-04-12T06:42:38;6.40;;;1.45;;
71916;SDS011;59793;46.506;6.674;2023-04-12T06:45:04;2.67;;;1.23;;
71916;SDS011;59793;46.506;6.674;2023-04-12T06:47:30;4.22;;;1.40;;
71916;SDS011;59793;46.506;6.674;2023-04-12T06:49:56;2.30;;;1.50;;
71916;SDS011;59793;46.506;6.674;2023-04-12T06:52:25;3.40;;;1.10;;
71916;SDS011;59793;46.506;6.674;2023-04-12T06:54:51;6.63;;;1.15;;
71916;SDS011;59793;46.506;6.674;2023-04-12T06:57:16;5.87;;;1.60;;
71916;SDS011;59793;46.506;6.674;2023-04-12T06:59:42;6.00;;;1.90;;
71916;SDS011;59793;46.506;6.674;2023-04-12T07:02:07;2.40;;;1.10;;
71916;SDS011;59793;46.506;6.674;2023-04-12T07:04:33;3.03;;;1.40;;
71916;SDS011;59793;46.506;6.674;2023-04-12T07:06:58;2.00;;;1.00;;
71916;SDS011;59793;46.506;6.674;2023-04-12T07:09:23;1.97;;;0.90;;
71916;SDS011;59793;46.506;6.674;2023-04-12T07:11:49;4.50;;;1.60;;
71916;SDS011;59793;46.506;6.674;2023-04-12T07:14:14;2.67;;;1.20;;
71916;SDS011;59793;46.506;6.674;2023-04-12T07:16:41;2.87;;;1.57;;
71916;SDS011;59793;46.506;6.674;2023-04-12T07:19:07;3.78;;;1.10;;
71916;SDS011;59793;46.506;6.674;2023-04-12T07:21:32;2.27;;;1.00;;
71916;SDS011;59793;46.506;6.674;2023-04-12T07:23:57;3.10;;;1.17;;
71916;SDS011;59793;46.506;6.674;2023-04-12T07:26:23;3.70;;;1.20;;
71916;SDS011;59793;46.506;6.674;2023-04-12T07:28:50;6.00;;;1.58;;
71916;SDS011;59793;46.506;6.674;2023-04-12T07:31:15;1.93;;;1.10;;
71916;SDS011;59793;46.506;6.674;2023-04-12T07:33:41;2.80;;;1.10;;
71916;SDS011;59793;46.506;6.674;2023-04-12T07:36:07;4.03;;;1.17;;
71916;SDS011;59793;46.506;6.674;2023-04-12T07:38:32;2.73;;;1.30;;
71916;SDS011;59793;46.506;6.674;2023-04-12T07:40:58;2.93;;;1.13;;
71916;SDS011;59793;46.506;6.674;2023-04-12T07:43:23;1.73;;;0.90;;
71916;SDS011;59793;46.506;6.674;2023-04-12T07:45:49;4.63;;;1.50;;
71916;SDS011;59793;46.506;6.674;2023-04-12T07:48:15;4.82;;;1.52;;
71916;SDS011;59793;46.506;6.674;2023-04-12T07:50:41;4.73;;;1.40;;
71916;SDS011;59793;46.506;6.674;2023-04-12T07:53:24;3.50;;;0.98;;
71916;SDS011;59793;46.506;6.674;2023-04-12T07:55:50;3.90;;;1.35;;
71916;SDS011;59793;46.506;6.674;2023-04-12T07:58:20;3.47;;;1.08;;
71916;SDS011;59793;46.506;6.674;2023-04-12T08:00:49;2.60;;;1.15;;
71916;SDS011;59793;46.506;6.674;2023-04-12T08:03:17;3.20;;;1.30;;
71916;SDS011;59793;46.506;6.674;2023-04-12T08:05:43;3.03;;;1.42;;
71916;SDS011;59793;46.506;6.674;2023-04-12T08:08:09;2.55;;;1.05;;
71916;SDS011;59793;46.506;6.674;2023-04-12T08:10:36;2.03;;;1.10;;
71916;SDS011;59793;46.506;6.674;2023-04-12T08:13:02;1.70;;;0.90;;
71916;SDS011;59793;46.506;6.674;2023-04-12T08:15:28;8.23;;;1.20;;
71916;SDS011;59793;46.506;6.674;2023-04-12T08:17:54;2.07;;;0.73;;
71916;SDS011;59793;46.506;6.674;2023-04-12T08:20:19;1.63;;;0.73;;
71916;SDS011;59793;46.506;6.674;2023-04-12T08:22:45;0.87;;;0.77;;
71916;SDS011;59793;46.506;6.674;2023-04-12T08:25:12;1.73;;;0.85;;
71916;SDS011;59793;46.506;6.674;2023-04-12T08:27:38;2.63;;;1.00;;
71916;SDS011;59793;46.506;6.674;2023-04-12T08:30:06;2.97;;;1.02;;
71916;SDS011;59793;46.506;6.674;2023-04-12T08:32:32;2.22;;;1.00;;
71916;SDS011;59793;46.506;6.674;2023-04-12T08:34:58;4.47;;;1.35;;
71916;SDS011;59793;46.506;6.674;2023-04-12T08:37:24;2.70;;;1.10;;
71916;SDS011;59793;46.506;6.674;2023-04-12T08:39:50;4.87;;;1.60;;
71916;SDS011;59793;46.506;6.674;2023-04-12T08:42:15;7.37;;;1.53;;
71916;SDS011;59793;46.506;6.674;2023-04-12T08:44:41;6.60;;;1.27;;
71916;SDS011;59793;46.506;6.674;2023-04-12T08:47:08;5.18;;;1.88;;
71916;SDS011;59793;46.506;6.674;2023-04-12T08:49:35;4.40;;;1.58;;
71916;SDS011;59793;46.506;6.674;2023-04-12T08:52:04;6.43;;;1.93;;
71916;SDS011;59793;46.506;6.674;2023-04-12T08:54:32;5.28;;;1.88;;
71916;SDS011;59793;46.506;6.674;2023-04-12T08:56:59;5.55;;;1.40;;
71916;SDS011;59793;46.506;6.674;2023-04-12T08:59:26;2.88;;;1.33;;
71916;SDS011;59793;46.506;6.674;2023-04-12T09:01:53;3.80;;;1.20;;
71916;SDS011;59793;46.506;6.674;2023-04-12T09:04:19;6.90;;;1.60;;
71916;SDS011;59793;46.506;6.674;2023-04-12T09:06:44;4.60;;;1.77;;
71916;SDS011;59793;46.506;6.674;2023-04-12T09:09:10;4.77;;;1.97;;
71916;SDS011;59793;46.506;6.674;2023-04-12T09:11:35;6.60;;;1.50;;
71916;SDS011;59793;46.506;6.674;2023-04-12T09:14:01;3.30;;;1.37;;
71916;SDS011;59793;46.506;6.674;2023-04-12T09:16:36;4.87;;;1.80;;
71916;SDS011;59793;46.506;6.674;2023-04-12T09:19:06;8.30;;;2.00;;
71916;SDS011;59793;46.506;6.674;2023-04-12T09:21:32;8.05;;;1.63;;
71916;SDS011;59793;46.506;6.674;2023-04-12T09:24:02;7.15;;;1.73;;
71916;SDS011;59793;46.506;6.674;2023-04-12T09:28:55;4.10;;;1.55;;
71916;SDS011;59793;46.506;6.674;2023-04-12T09:31:20;3.43;;;1.57;;
71916;SDS011;59793;46.506;6.674;2023-04-12T09:33:46;6.83;;;1.70;;
71916;SDS011;59793;46.506;6.674;2023-04-12T09:36:11;3.83;;;1.57;;
71916;SDS011;59793;46.506;6.674;2023-04-12T09:38:56;3.78;;;1.30;;
71916;SDS011;59793;46.506;6.674;2023-04-12T09:41:23;5.90;;;1.90;;
71916;SDS011;59793;46.506;6.674;2023-04-12T09:43:54;5.20;;;1.40;;
71916;SDS011;59793;46.506;6.674;2023-04-12T09:46:19;3.83;;;1.67;;
71916;SDS011;59793;46.506;6.674;2023-04-12T09:48:50;7.47;;;1.92;;
71916;SDS011;59793;46.506;6.674;2023-04-12T09:51:24;6.18;;;1.58;;
71916;SDS011;59793;46.506;6.674;2023-04-12T09:53:52;5.03;;;1.65;;
71916;SDS011;59793;46.506;6.674;2023-04-12T09:56:23;8.90;;;1.63;;
71916;SDS011;59793;46.506;6.674;2023-04-12T09:58:51;7.15;;;1.98;;
71916;SDS011;59793;46.506;6.674;2023-04-12T10:01:18;5.68;;;1.40;;
71916;SDS011;59793;46.506;6.674;2023-04-12T10:03:45;5.38;;;1.52;;
71916;SDS011;59793;46.506;6.674;2023-04-12T10:06:12;6.25;;;1.50;;
71916;SDS011;59793;46.506;6.674;2023-04-12T10:08:38;10.18;;;1.92;;
71916;SDS011;59793;46.506;6.674;2023-04-12T10:11:04;5.07;;;1.70;;
71916;SDS011;59793;46.506;6.674;2023-04-12T10:13:31;4.05;;;1.55;;
71916;SDS011;59793;46.506;6.674;2023-04-12T10:15:57;9.90;;;1.45;;
71916;SDS011;59793;46.506;6.674;2023-04-12T10:18:24;4.07;;;1.48;;
71916;SDS011;59793;46.506;6.674;2023-04-12T10:20:51;7.20;;;1.92;;
71916;SDS011;59793;46.506;6.674;2023-04-12T10:23:17;6.10;;;1.67;;
71916;SDS011;59793;46.506;6.674;2023-04-12T10:25:43;6.00;;;1.63;;
71916;SDS011;59793;46.506;6.674;2023-04-12T10:28:18;5.93;;;1.10;;
71916;SDS011;59793;46.506;6.674;2023-04-12T10:30:45;2.75;;;1.30;;
71916;SDS011;59793;46.506;6.674;2023-04-12T10:33:16;4.85;;;1.17;;
71916;SDS011;59793;46.506;6.674;2023-04-12T10:38:12;6.18;;;1.48;;
71916;SDS011;59793;46.506;6.674;2023-04-12T10:40:37;7.87;;;1.57;;
71916;SDS011;59793;46.506;6.674;2023-04-12T10:45:46;1.92;;;1.15;;
71916;SDS011;59793;46.506;6.674;2023-04-12T10:53:47;4.47;;;1.60;;
71916;SDS011;59793;46.506;6.674;2023-04-12T10:58:54;6.38;;;2.08;;
71916;SDS011;59793;46.506;6.674;2023-04-12T11:01:20;4.70;;;1.55;;
71916;SDS011;59793;46.506;6.674;2023-04-12T11:06:59;5.88;;;1.95;;
71916;SDS011;59793;46.506;6.674;2023-04-12T11:12:15;6.70;;;1.77;;
71916;SDS011;59793;46.506;6.674;2023-04-12T11:14:44;4.30;;;1.20;;
71916;SDS011;59793;46.506;6.674;2023-04-12T11:22:11;6.10;;;1.80;;
71916;SDS011;59793;46.506;6.674;2023-04-12T11:24:48;7.35;;;1.70;;
71916;SDS011;59793;46.506;6.674;2023-04-12T11:27:15;5.88;;;1.73;;
71916;SDS011;59793;46.506;6.674;2023-04-12T11:29:41;7.13;;;1.37;;
71916;SDS011;59793;46.506;6.674;2023-04-12T11:32:10;6.63;;;2.03;;
71916;SDS011;59793;46.506;6.674;2023-04-12T11:34:40;3.95;;;1.52;;
71916;SDS011;59793;46.506;6.674;2023-04-12T11:37:07;7.63;;;2.22;;
71916;SDS011;59793;46.506;6.674;2023-04-12T11:39:34;9.45;;;2.47;;
71916;SDS011;59793;46.506;6.674;2023-04-12T11:42:01;5.20;;;1.95;;
71916;SDS011;59793;46.506;6.674;2023-04-12T11:44:27;7.65;;;1.83;;
71916;SDS011;59793;46.506;6.674;2023-04-12T11:46:53;6.35;;;2.05;;
71916;SDS011;59793;46.506;6.674;2023-04-12T11:49:19;5.27;;;1.60;;
71916;SDS011;59793;46.506;6.674;2023-04-12T11:51:47;4.32;;;1.92;;
71916;SDS011;59793;46.506;6.674;2023-04-12T11:54:12;6.27;;;1.97;;
71916;SDS011;59793;46.506;6.674;2023-04-12T11:56:38;5.93;;;1.80;;
71916;SDS011;59793;46.506;6.674;2023-04-12T11:59:04;3.53;;;1.55;;
71916;SDS011;59793;46.506;6.674;2023-04-12T12:01:30;8.20;;;1.80;;
71916;SDS011;59793;46.506;6.674;2023-04-12T12:03:58;5.18;;;1.90;;
71916;SDS011;59793;46.506;6.674;2023-04-12T12:06:25;5.22;;;1.92;;
71916;SDS011;59793;46.506;6.674;2023-04-12T12:08:51;7.45;;;1.90;;
71916;SDS011;59793;46.506;6.674;2023-04-12T12:11:20;7.80;;;1.95;;
71916;SDS011;59793;46.506;6.674;2023-04-12T12:13:51;7.78;;;2.20;;
71916;SDS011;59793;46.506;6.674;2023-04-12T12:16:29;5.93;;;1.67;;
71916;SDS011;59793;46.506;6.674;2023-04-12T12:18:54;6.70;;;1.63;;
71916;SDS011;59793;46.506;6.674;2023-04-12T12:21:21;6.75;;;2.05;;
71916;SDS011;59793;46.506;6.674;2023-04-12T12:23:47;5.87;;;1.73;;
71916;SDS011;59793;46.506;6.674;2023-04-12T12:26:25;6.35;;;2.03;;
71916;SDS011;59793;46.506;6.674;2023-04-12T12:28:55;6.40;;;1.77;;
71916;SDS011;59793;46.506;6.674;2023-04-12T12:31:22;9.98;;;1.90;;
71916;SDS011;59793;46.506;6.674;2023-04-12T12:33:53;6.32;;;1.85;;
71916;SDS011;59793;46.506;6.674;2023-04-12T12:36:27;9.85;;;1.73;;
71916;SDS011;59793;46.506;6.674;2023-04-12T12:39:01;8.55;;;1.98;;
71916;SDS011;59793;46.506;6.674;2023-04-12T12:41:29;9.70;;;1.73;;
71916;SDS011;59793;46.506;6.674;2023-04-12T12:43:55;4.53;;;1.63;;
71916;SDS011;59793;46.506;6.674;2023-04-12T12:46:20;3.17;;;1.60;;
71916;SDS011;59793;46.506;6.674;2023-04-12T12:48:46;5.87;;;1.80;;
71916;SDS011;59793;46.506;6.674;2023-04-12T12:51:13;7.32;;;1.90;;
71916;SDS011;59793;46.506;6.674;2023-04-12T12:53:41;4.22;;;1.75;;
71916;SDS011;59793;46.506;6.674;2023-04-12T12:56:07;3.27;;;1.63;;
71916;SDS011;59793;46.506;6.674;2023-04-12T12:58:34;3.88;;;1.50;;
71916;SDS011;59793;46.506;6.674;2023-04-12T13:01:00;4.23;;;1.50;;
71916;SDS011;59793;46.506;6.674;2023-04-12T13:03:25;9.03;;;1.73;;
71916;SDS011;59793;46.506;6.674;2023-04-12T13:05:51;5.30;;;1.73;;
71916;SDS011;59793;46.506;6.674;2023-04-12T13:08:16;7.13;;;1.50;;
71916;SDS011;59793;46.506;6.674;2023-04-12T13:10:42;5.97;;;1.63;;
71916;SDS011;59793;46.506;6.674;2023-04-12T13:13:07;3.73;;;1.43;;
71916;SDS011;59793;46.506;6.674;2023-04-12T13:15:33;2.80;;;1.87;;
71916;SDS011;59793;46.506;6.674;2023-04-12T13:17:58;5.03;;;1.20;;
71916;SDS011;59793;46.506;6.674;2023-04-12T13:20:23;3.27;;;1.50;;
71916;SDS011;59793;46.506;6.674;2023-04-12T13:22:49;8.60;;;1.57;;
71916;SDS011;59793;46.506;6.674;2023-04-12T13:25:16;2.70;;;1.30;;
71916;SDS011;59793;46.506;6.674;2023-04-12T13:27:43;5.40;;;1.65;;
71916;SDS011;59793;46.506;6.674;2023-04-12T13:30:09;2.57;;;1.50;;
71916;SDS011;59793;46.506;6.674;2023-04-12T13:32:35;4.33;;;1.60;;
71916;SDS011;59793;46.506;6.674;2023-04-12T13:35:00;6.15;;;1.45;;
71916;SDS011;59793;46.506;6.674;2023-04-12T13:37:29;3.73;;;1.40;;
71916;SDS011;59793;46.506;6.674;2023-04-12T13:39:55;3.70;;;1.85;;
71916;SDS011;59793;46.506;6.674;2023-04-12T13:42:21;2.40;;;1.10;;
71916;SDS011;59793;46.506;6.674;2023-04-12T13:44:46;8.20;;;1.90;;
71916;SDS011;59793;46.506;6.674;2023-04-12T13:47:12;3.07;;;1.30;;
71916;SDS011;59793;46.506;6.674;2023-04-12T13:49:38;6.35;;;1.90;;
71916;SDS011;59793;46.506;6.674;2023-04-12T13:52:05;3.50;;;1.30;;
71916;SDS011;59793;46.506;6.674;2023-04-12T13:54:31;3.53;;;1.30;;
71916;SDS011;59793;46.506;6.674;2023-04-12T13:56:56;2.23;;;1.40;;
71916;SDS011;59793;46.506;6.674;2023-04-12T13:59:22;2.90;;;1.57;;
71916;SDS011;59793;46.506;6.674;2023-04-12T14:01:48;4.13;;;1.70;;
71916;SDS011;59793;46.506;6.674;2023-04-12T14:04:13;4.30;;;1.90;;
71916;SDS011;59793;46.506;6.674;2023-04-12T14:06:38;4.83;;;1.87;;
71916;SDS011;59793;46.506;6.674;2023-04-12T14:09:04;6.43;;;2.10;;
71916;SDS011;59793;46.506;6.674;2023-04-12T14:11:29;3.53;;;1.80;;
71916;SDS011;59793;46.506;6.674;2023-04-12T14:14:08;6.47;;;1.77;;
71916;SDS011;59793;46.506;6.674;2023-04-12T14:16:33;2.63;;;1.70;;
71916;SDS011;59793;46.506;6.674;2023-04-12T14:19:01;9.57;;;2.83;;
71916;SDS011;59793;46.506;6.674;2023-04-12T14:21:27;5.47;;;1.95;;
71916;SDS011;59793;46.506;6.674;2023-04-12T14:23:53;9.63;;;3.27;;
71916;SDS011;59793;46.506;6.674;2023-04-12T14:26:19;5.00;;;2.67;;
71916;SDS011;59793;46.506;6.674;2023-04-12T14:28:44;3.57;;;1.70;;
71916;SDS011;59793;46.506;6.674;2023-04-12T14:31:10;5.75;;;2.33;;
71916;SDS011;59793;46.506;6.674;2023-04-12T14:33:35;7.97;;;2.60;;
71916;SDS011;59793;46.506;6.674;2023-04-12T14:36:01;4.47;;;1.93;;
71916;SDS011;59793;46.506;6.674;2023-04-12T14:38:29;5.60;;;1.95;;
71916;SDS011;59793;46.506;6.674;2023-04-12T14:40:54;6.30;;;2.20;;
71916;SDS011;59793;46.506;6.674;2023-04-12T14:43:20;5.90;;;2.43;;
71916;SDS011;59793;46.506;6.674;2023-04-12T14:45:45;6.20;;;2.03;;
71916;SDS011;59793;46.506;6.674;2023-04-12T14:48:11;4.43;;;2.27;;
71916;SDS011;59793;46.506;6.674;2023-04-12T14:50:36;4.37;;;1.73;;
71916;SDS011;59793;46.506;6.674;2023-04-12T14:53:03;4.85;;;1.70;;
71916;SDS011;59793;46.506;6.674;2023-04-12T14:55:37;5.97;;;1.95;;
71916;SDS011;59793;46.506;6.674;2023-04-12T14:58:03;4.20;;;2.13;;
71916;SDS011;59793;46.506;6.674;2023-04-12T15:00:29;5.20;;;2.20;;
71916;SDS011;59793;46.506;6.674;2023-04-12T15:02:54;4.93;;;1.93;;
71916;SDS011;59793;46.506;6.674;2023-04-12T15:05:20;4.03;;;1.90;;
71916;SDS011;59793;46.506;6.674;2023-04-12T15:07:45;5.40;;;2.60;;
71916;SDS011;59793;46.506;6.674;2023-04-12T15:10:11;7.40;;;2.33;;
71916;SDS011;59793;46.506;6.674;2023-04-12T15:15:03;6.65;;;2.30;;
71916;SDS011;59793;46.506;6.674;2023-04-12T15:17:29;5.72;;;2.42;;
71916;SDS011;59793;46.506;6.674;2023-04-12T15:19:58;9.23;;;4.22;;
71916;SDS011;59793;46.506;6.674;2023-04-12T15:22:24;7.40;;;3.37;;
71916;SDS011;59793;46.506;6.674;2023-04-12T15:24:51;11.73;;;3.75;;
71916;SDS011;59793;46.506;6.674;2023-04-12T15:27:16;10.77;;;3.75;;
71916;SDS011;59793;46.506;6.674;2023-04-12T15:29:42;7.40;;;3.10;;
71916;SDS011;59793;46.506;6.674;2023-04-12T15:32:07;5.18;;;2.83;;
71916;SDS011;59793;46.506;6.674;2023-04-12T15:34:33;7.85;;;2.95;;
71916;SDS011;59793;46.506;6.674;2023-04-12T15:36:59;4.63;;;2.22;;